sensor_id;sensor_type;location;lat;lon;timestamp;P1;durP1;ratioP1;P2;durP2;ratioP2
4414;SDS011;2220;42.670;23.398;2024-02-26T00:02:05;13.82;;;7.40;;
4414;SDS011;2220;42.670;23.398;2024-02-26T00:04:31;14.00;;;8.20;;
4414;SDS011;2220;42.670;23.398;2024-02-26T00:06:57;16.45;;;9.10;;
4414;SDS011;2220;42.670;23.398;2024-02-26T00:09:23;15.88;;;9.65;;
4414;SDS011;2220;42.670;23.398;2024-02-26T00:11:48;15.13;;;9.38;;
4414;SDS011;2220;42.670;23.398;2024-02-26T00:14:14;14.20;;;9.15;;
4414;SDS011;2220;42.670;23.398;2024-02-26T00:16:40;16.20;;;9.48;;
4414;SDS011;2220;42.670;23.398;2024-02-26T00:19:06;13.60;;;9.00;;
4414;SDS011;2220;42.670;23.398;2024-02-26T00:21:32;15.50;;;9.32;;
4414;SDS011;2220;42.670;23.398;2024-02-26T00:23:57;49.33;;;25.17;;
4414;SDS011;2220;42.670;23.398;2024-02-26T00:26:22;56.40;;;29.33;;
4414;SDS011;2220;42.670;23.398;2024-02-26T00:28:48;64.85;;;29.35;;
4414;SDS011;2220;42.670;23.398;2024-02-26T00:31:13;55.03;;;27.85;;
4414;SDS011;2220;42.670;23.398;2024-02-26T00:33:39;64.07;;;32.42;;
4414;SDS011;2220;42.670;23.398;2024-02-26T00:36:04;72.45;;;33.42;;
4414;SDS011;2220;42.670;23.398;2024-02-26T00:38:30;64.90;;;33.42;;
4414;SDS011;2220;42.670;23.398;2024-02-26T00:40:55;46.03;;;23.17;;
4414;SDS011;2220;42.670;23.398;2024-02-26T00:43:21;45.35;;;25.17;;
4414;SDS011;2220;42.670;23.398;2024-02-26T00:45:46;53.10;;;23.25;;
4414;SDS011;2220;42.670;23.398;2024-02-26T00:48:12;39.50;;;21.15;;
4414;SDS011;2220;42.670;23.398;2024-02-26T00:50:38;47.47;;;23.50;;
4414;SDS011;2220;42.670;23.398;2024-02-26T00:53:04;45.40;;;22.77;;
4414;SDS011;2220;42.670;23.398;2024-02-26T00:55:30;45.88;;;21.48;;
4414;SDS011;2220;42.670;23.398;2024-02-26T00:57:55;39.88;;;22.70;;
4414;SDS011;2220;42.670;23.398;2024-02-26T01:00:21;46.63;;;24.63;;
4414;SDS011;2220;42.670;23.398;2024-02-26T01:02:46;48.15;;;24.23;;
4414;SDS011;2220;42.670;23.398;2024-02-26T01:05:12;53.50;;;24.60;;
4414;SDS011;2220;42.670;23.398;2024-02-26T01:07:38;51.00;;;25.50;;
4414;SDS011;2220;42.670;23.398;2024-02-26T01:10:05;55.25;;;30.23;;
4414;SDS011;2220;42.670;23.398;2024-02-26T01:12:32;51.33;;;26.23;;
4414;SDS011;2220;42.670;23.398;2024-02-26T01:15:01;50.83;;;25.27;;
4414;SDS011;2220;42.670;23.398;2024-02-26T01:17:28;51.67;;;27.80;;
4414;SDS011;2220;42.670;23.398;2024-02-26T01:19:53;59.75;;;30.45;;
4414;SDS011;2220;42.670;23.398;2024-02-26T01:22:19;46.67;;;24.10;;
4414;SDS011;2220;42.670;23.398;2024-02-26T01:24:45;41.13;;;20.23;;
4414;SDS011;2220;42.670;23.398;2024-02-26T01:27:10;30.52;;;16.40;;
4414;SDS011;2220;42.670;23.398;2024-02-26T01:29:36;33.08;;;18.27;;
4414;SDS011;2220;42.670;23.398;2024-02-26T01:32:01;30.90;;;16.83;;
4414;SDS011;2220;42.670;23.398;2024-02-26T01:34:27;31.10;;;17.85;;
4414;SDS011;2220;42.670;23.398;2024-02-26T01:36:53;24.98;;;15.82;;
4414;SDS011;2220;42.670;23.398;2024-02-26T01:39:18;46.28;;;24.90;;
4414;SDS011;2220;42.670;23.398;2024-02-26T01:41:44;37.33;;;19.08;;
4414;SDS011;2220;42.670;23.398;2024-02-26T01:44:11;54.22;;;27.92;;
4414;SDS011;2220;42.670;23.398;2024-02-26T01:46:38;50.25;;;26.88;;
4414;SDS011;2220;42.670;23.398;2024-02-26T01:49:04;29.15;;;15.40;;
4414;SDS011;2220;42.670;23.398;2024-02-26T01:51:29;39.90;;;22.52;;
4414;SDS011;2220;42.670;23.398;2024-02-26T01:53:56;53.40;;;28.17;;
4414;SDS011;2220;42.670;23.398;2024-02-26T01:56:22;70.85;;;33.30;;
4414;SDS011;2220;42.670;23.398;2024-02-26T01:58:53;57.05;;;31.70;;
4414;SDS011;2220;42.670;23.398;2024-02-26T02:01:18;63.92;;;29.90;;
4414;SDS011;2220;42.670;23.398;2024-02-26T02:03:47;54.88;;;30.63;;
4414;SDS011;2220;42.670;23.398;2024-02-26T02:06:12;51.45;;;28.35;;
4414;SDS011;2220;42.670;23.398;2024-02-26T02:08:38;52.40;;;30.25;;
4414;SDS011;2220;42.670;23.398;2024-02-26T02:11:04;53.85;;;27.55;;
4414;SDS011;2220;42.670;23.398;2024-02-26T02:13:29;44.22;;;24.75;;
4414;SDS011;2220;42.670;23.398;2024-02-26T02:15:55;43.40;;;23.35;;
4414;SDS011;2220;42.670;23.398;2024-02-26T02:18:20;39.13;;;20.05;;
4414;SDS011;2220;42.670;23.398;2024-02-26T02:20:46;36.20;;;21.80;;
4414;SDS011;2220;42.670;23.398;2024-02-26T02:23:11;53.50;;;29.05;;
4414;SDS011;2220;42.670;23.398;2024-02-26T02:25:36;45.22;;;22.80;;
4414;SDS011;2220;42.670;23.398;2024-02-26T02:28:02;32.33;;;17.95;;
4414;SDS011;2220;42.670;23.398;2024-02-26T02:30:28;41.63;;;20.50;;
4414;SDS011;2220;42.670;23.398;2024-02-26T02:32:56;32.20;;;18.58;;
4414;SDS011;2220;42.670;23.398;2024-02-26T02:35:23;28.25;;;14.80;;
4414;SDS011;2220;42.670;23.398;2024-02-26T02:37:49;28.50;;;17.73;;
4414;SDS011;2220;42.670;23.398;2024-02-26T02:40:17;28.20;;;16.40;;
4414;SDS011;2220;42.670;23.398;2024-02-26T02:42:42;34.35;;;17.25;;
4414;SDS011;2220;42.670;23.398;2024-02-26T02:45:07;28.08;;;15.63;;
4414;SDS011;2220;42.670;23.398;2024-02-26T02:47:35;45.70;;;20.83;;
4414;SDS011;2220;42.670;23.398;2024-02-26T02:50:01;33.38;;;17.60;;
4414;SDS011;2220;42.670;23.398;2024-02-26T02:52:27;28.52;;;14.48;;
4414;SDS011;2220;42.670;23.398;2024-02-26T02:54:52;25.98;;;14.10;;
4414;SDS011;2220;42.670;23.398;2024-02-26T02:57:18;34.60;;;18.20;;
4414;SDS011;2220;42.670;23.398;2024-02-26T02:59:43;35.80;;;18.13;;
4414;SDS011;2220;42.670;23.398;2024-02-26T03:02:09;22.33;;;12.68;;
4414;SDS011;2220;42.670;23.398;2024-02-26T03:04:34;25.60;;;11.75;;
4414;SDS011;2220;42.670;23.398;2024-02-26T03:06:59;21.38;;;11.90;;
4414;SDS011;2220;42.670;23.398;2024-02-26T03:09:25;23.98;;;13.68;;
4414;SDS011;2220;42.670;23.398;2024-02-26T03:11:50;20.55;;;12.55;;
4414;SDS011;2220;42.670;23.398;2024-02-26T03:14:16;21.17;;;11.15;;
4414;SDS011;2220;42.670;23.398;2024-02-26T03:19:18;16.65;;;10.25;;
4414;SDS011;2220;42.670;23.398;2024-02-26T03:21:43;29.80;;;15.00;;
4414;SDS011;2220;42.670;23.398;2024-02-26T03:24:09;22.10;;;12.05;;
4414;SDS011;2220;42.670;23.398;2024-02-26T03:26:35;23.02;;;11.43;;
4414;SDS011;2220;42.670;23.398;2024-02-26T03:29:01;36.22;;;18.00;;
4414;SDS011;2220;42.670;23.398;2024-02-26T03:31:27;37.00;;;19.50;;
4414;SDS011;2220;42.670;23.398;2024-02-26T03:33:53;42.83;;;23.42;;
4414;SDS011;2220;42.670;23.398;2024-02-26T03:36:18;41.33;;;23.58;;
4414;SDS011;2220;42.670;23.398;2024-02-26T03:38:44;61.25;;;31.17;;
4414;SDS011;2220;42.670;23.398;2024-02-26T03:41:09;56.42;;;29.95;;
4414;SDS011;2220;42.670;23.398;2024-02-26T03:43:35;59.15;;;31.75;;
4414;SDS011;2220;42.670;23.398;2024-02-26T03:46:00;62.85;;;31.15;;
4414;SDS011;2220;42.670;23.398;2024-02-26T03:48:26;59.38;;;30.92;;
4414;SDS011;2220;42.670;23.398;2024-02-26T03:50:51;76.22;;;37.60;;
4414;SDS011;2220;42.670;23.398;2024-02-26T03:53:17;54.17;;;29.80;;
4414;SDS011;2220;42.670;23.398;2024-02-26T03:55:43;63.42;;;32.00;;
4414;SDS011;2220;42.670;23.398;2024-02-26T03:58:08;48.50;;;28.73;;
4414;SDS011;2220;42.670;23.398;2024-02-26T04:00:34;58.97;;;30.95;;
4414;SDS011;2220;42.670;23.398;2024-02-26T04:02:59;64.57;;;31.70;;
4414;SDS011;2220;42.670;23.398;2024-02-26T04:05:25;68.38;;;35.45;;
4414;SDS011;2220;42.670;23.398;2024-02-26T04:07:50;54.70;;;31.05;;
4414;SDS011;2220;42.670;23.398;2024-02-26T04:10:15;59.22;;;33.95;;
4414;SDS011;2220;42.670;23.398;2024-02-26T04:12:41;62.67;;;32.58;;
4414;SDS011;2220;42.670;23.398;2024-02-26T04:15:08;65.55;;;33.90;;
4414;SDS011;2220;42.670;23.398;2024-02-26T04:17:34;55.13;;;32.40;;
4414;SDS011;2220;42.670;23.398;2024-02-26T04:19:59;52.72;;;30.20;;
4414;SDS011;2220;42.670;23.398;2024-02-26T04:22:25;61.90;;;32.15;;
4414;SDS011;2220;42.670;23.398;2024-02-26T04:24:50;61.95;;;32.28;;
4414;SDS011;2220;42.670;23.398;2024-02-26T04:27:15;65.05;;;32.50;;
4414;SDS011;2220;42.670;23.398;2024-02-26T04:29:41;58.90;;;33.17;;
4414;SDS011;2220;42.670;23.398;2024-02-26T04:32:06;57.60;;;29.55;;
4414;SDS011;2220;42.670;23.398;2024-02-26T04:34:31;61.58;;;33.38;;
4414;SDS011;2220;42.670;23.398;2024-02-26T04:36:57;60.08;;;31.85;;
4414;SDS011;2220;42.670;23.398;2024-02-26T04:39:22;55.05;;;29.00;;
4414;SDS011;2220;42.670;23.398;2024-02-26T04:41:48;56.53;;;29.85;;
4414;SDS011;2220;42.670;23.398;2024-02-26T04:44:13;56.03;;;30.52;;
4414;SDS011;2220;42.670;23.398;2024-02-26T04:46:38;59.35;;;31.98;;
4414;SDS011;2220;42.670;23.398;2024-02-26T04:49:04;58.28;;;30.60;;
4414;SDS011;2220;42.670;23.398;2024-02-26T04:51:29;61.78;;;31.38;;
4414;SDS011;2220;42.670;23.398;2024-02-26T04:53:54;51.05;;;29.58;;
4414;SDS011;2220;42.670;23.398;2024-02-26T04:56:21;58.55;;;31.13;;
4414;SDS011;2220;42.670;23.398;2024-02-26T04:58:46;55.40;;;30.67;;
4414;SDS011;2220;42.670;23.398;2024-02-26T05:01:12;97.45;;;54.15;;
4414;SDS011;2220;42.670;23.398;2024-02-26T05:03:37;69.30;;;39.78;;
4414;SDS011;2220;42.670;23.398;2024-02-26T05:06:03;57.03;;;32.88;;
4414;SDS011;2220;42.670;23.398;2024-02-26T05:08:30;54.53;;;33.08;;
4414;SDS011;2220;42.670;23.398;2024-02-26T05:10:55;54.75;;;30.60;;
4414;SDS011;2220;42.670;23.398;2024-02-26T05:13:21;67.95;;;35.70;;
4414;SDS011;2220;42.670;23.398;2024-02-26T05:15:47;70.88;;;34.92;;
4414;SDS011;2220;42.670;23.398;2024-02-26T05:18:14;63.75;;;33.33;;
4414;SDS011;2220;42.670;23.398;2024-02-26T05:20:40;73.88;;;34.67;;
4414;SDS011;2220;42.670;23.398;2024-02-26T05:23:06;72.88;;;35.20;;
4414;SDS011;2220;42.670;23.398;2024-02-26T05:25:31;64.50;;;34.38;;
4414;SDS011;2220;42.670;23.398;2024-02-26T05:27:56;62.53;;;33.33;;
4414;SDS011;2220;42.670;23.398;2024-02-26T05:30:22;59.47;;;33.00;;
4414;SDS011;2220;42.670;23.398;2024-02-26T05:32:47;66.93;;;32.97;;
4414;SDS011;2220;42.670;23.398;2024-02-26T05:35:12;56.55;;;31.45;;
4414;SDS011;2220;42.670;23.398;2024-02-26T05:37:38;63.33;;;32.70;;
4414;SDS011;2220;42.670;23.398;2024-02-26T05:40:04;58.08;;;30.30;;
4414;SDS011;2220;42.670;23.398;2024-02-26T05:42:30;59.30;;;30.63;;
4414;SDS011;2220;42.670;23.398;2024-02-26T05:44:56;56.40;;;31.08;;
4414;SDS011;2220;42.670;23.398;2024-02-26T05:47:22;55.55;;;29.63;;
4414;SDS011;2220;42.670;23.398;2024-02-26T05:49:47;56.85;;;29.23;;
4414;SDS011;2220;42.670;23.398;2024-02-26T05:52:13;55.08;;;30.27;;
4414;SDS011;2220;42.670;23.398;2024-02-26T05:54:39;58.92;;;29.15;;
4414;SDS011;2220;42.670;23.398;2024-02-26T05:57:04;50.47;;;28.40;;
4414;SDS011;2220;42.670;23.398;2024-02-26T05:59:30;88.40;;;43.30;;
4414;SDS011;2220;42.670;23.398;2024-02-26T06:01:58;55.83;;;30.63;;
4414;SDS011;2220;42.670;23.398;2024-02-26T06:04:24;58.25;;;29.35;;
4414;SDS011;2220;42.670;23.398;2024-02-26T06:06:49;98.78;;;51.10;;
4414;SDS011;2220;42.670;23.398;2024-02-26T06:09:17;127.82;;;66.65;;
4414;SDS011;2220;42.670;23.398;2024-02-26T06:11:43;70.70;;;32.85;;
4414;SDS011;2220;42.670;23.398;2024-02-26T06:14:08;52.90;;;28.67;;
4414;SDS011;2220;42.670;23.398;2024-02-26T06:16:34;63.75;;;34.75;;
4414;SDS011;2220;42.670;23.398;2024-02-26T06:19:00;65.35;;;36.83;;
4414;SDS011;2220;42.670;23.398;2024-02-26T06:21:26;76.90;;;36.80;;
